sensor_id;sensor_type;location;lat;lon;timestamp;pressure;altitude;pressure_sealevel;temperature;humidity
54554;BME280;40450;55.848;-3.572;2022-10-16T00:02:05;96957.32;;;9.39;87.48
54554;BME280;40450;55.848;-3.572;2022-10-16T00:04:35;96966.04;;;9.72;85.48
54554;BME280;40450;55.848;-3.572;2022-10-16T00:07:06;96963.51;;;9.19;85.69
54554;BME280;40450;55.848;-3.572;2022-10-16T00:09:36;96965.60;;;8.84;85.69
54554;BME280;40450;55.848;-3.572;2022-10-16T00:12:06;96966.29;;;8.07;88.40
54554;BME280;40450;55.848;-3.572;2022-10-16T00:14:37;96970.24;;;7.91;88.70
54554;BME280;40450;55.848;-3.572;2022-10-16T00:17:07;96973.85;;;6.63;91.65
54554;BME280;40450;55.848;-3.572;2022-10-16T00:19:38;96984.27;;;6.70;92.42
54554;BME280;40450;55.848;-3.572;2022-10-16T00:22:08;96992.41;;;6.85;91.89
54554;BME280;40450;55.848;-3.572;2022-10-16T00:24:39;96998.07;;;6.67;92.17
54554;BME280;40450;55.848;-3.572;2022-10-16T00:27:09;97003.51;;;6.76;92.05
54554;BME280;40450;55.848;-3.572;2022-10-16T00:29:39;97008.68;;;6.92;91.30
54554;BME280;40450;55.848;-3.572;2022-10-16T00:32:10;97015.82;;;6.39;92.39
54554;BME280;40450;55.848;-3.572;2022-10-16T00:34:40;97015.94;;;7.14;91.11
54554;BME280;40450;55.848;-3.572;2022-10-16T00:37:16;97028.05;;;6.66;92.25
54554;BME280;40450;55.848;-3.572;2022-10-16T00:39:41;97021.80;;;7.45;90.06
54554;BME280;40450;55.848;-3.572;2022-10-16T00:42:15;97025.10;;;7.72;89.28
54554;BME280;40450;55.848;-3.572;2022-10-16T00:44:45;97032.43;;;7.72;88.98
54554;BME280;40450;55.848;-3.572;2022-10-16T00:47:17;97039.94;;;7.68;88.72
54554;BME280;40450;55.848;-3.572;2022-10-16T00:52:13;97055.30;;;7.91;87.41
54554;BME280;40450;55.848;-3.572;2022-10-16T00:54:44;97060.80;;;7.91;87.74
54554;BME280;40450;55.848;-3.572;2022-10-16T00:57:14;97065.76;;;8.84;86.85
54554;BME280;40450;55.848;-3.572;2022-10-16T00:59:45;97073.13;;;8.74;85.84
54554;BME280;40450;55.848;-3.572;2022-10-16T01:02:15;97077.12;;;9.21;84.54
54554;BME280;40450;55.848;-3.572;2022-10-16T01:04:48;97081.77;;;9.42;82.51
54554;BME280;40450;55.848;-3.572;2022-10-16T01:07:24;97085.40;;;8.83;84.02
54554;BME280;40450;55.848;-3.572;2022-10-16T01:09:54;97088.19;;;9.33;82.73
54554;BME280;40450;55.848;-3.572;2022-10-16T01:12:22;97095.20;;;8.70;83.99
54554;BME280;40450;55.848;-3.572;2022-10-16T01:14:51;97088.80;;;8.32;84.82
54554;BME280;40450;55.848;-3.572;2022-10-16T01:17:19;97084.80;;;9.27;82.33
54554;BME280;40450;55.848;-3.572;2022-10-16T01:20:04;97092.36;;;8.91;82.88
54554;BME280;40450;55.848;-3.572;2022-10-16T01:22:19;97096.19;;;9.22;82.03
54554;BME280;40450;55.848;-3.572;2022-10-16T01:24:49;97098.41;;;9.32;81.73
54554;BME280;40450;55.848;-3.572;2022-10-16T01:27:21;97105.00;;;9.33;81.67
54554;BME280;40450;55.848;-3.572;2022-10-16T01:29:53;97105.65;;;8.66;82.13
54554;BME280;40450;55.848;-3.572;2022-10-16T01:32:27;97108.98;;;8.08;84.06
54554;BME280;40450;55.848;-3.572;2022-10-16T01:34:52;97112.63;;;9.24;81.63
54554;BME280;40450;55.848;-3.572;2022-10-16T01:37:28;97122.21;;;8.76;82.77
54554;BME280;40450;55.848;-3.572;2022-10-16T01:39:53;97122.85;;;8.76;82.50
54554;BME280;40450;55.848;-3.572;2022-10-16T01:42:22;97131.08;;;9.04;81.53
54554;BME280;40450;55.848;-3.572;2022-10-16T01:44:58;97135.03;;;8.84;82.25
54554;BME280;40450;55.848;-3.572;2022-10-16T01:47:24;97140.20;;;9.17;81.68
54554;BME280;40450;55.848;-3.572;2022-10-16T01:49:53;97150.37;;;8.13;83.79
54554;BME280;40450;55.848;-3.572;2022-10-16T01:52:25;97145.87;;;7.95;84.52
54554;BME280;40450;55.848;-3.572;2022-10-16T01:54:55;97151.21;;;9.29;81.22
54554;BME280;40450;55.848;-3.572;2022-10-16T01:57:24;97151.85;;;9.16;81.09
54554;BME280;40450;55.848;-3.572;2022-10-16T01:59:56;97160.60;;;8.22;83.61
54554;BME280;40450;55.848;-3.572;2022-10-16T02:02:27;97163.49;;;8.58;82.27
54554;BME280;40450;55.848;-3.572;2022-10-16T02:04:58;97160.36;;;8.61;82.16
54554;BME280;40450;55.848;-3.572;2022-10-16T02:07:25;97166.70;;;8.52;81.87
54554;BME280;40450;55.848;-3.572;2022-10-16T02:09:55;97169.77;;;7.90;83.22
54554;BME280;40450;55.848;-3.572;2022-10-16T02:12:28;97185.97;;;7.23;85.04
54554;BME280;40450;55.848;-3.572;2022-10-16T02:14:56;97194.23;;;5.77;89.11
54554;BME280;40450;55.848;-3.572;2022-10-16T02:17:26;97199.70;;;4.48;93.11
54554;BME280;40450;55.848;-3.572;2022-10-16T02:19:58;97191.79;;;4.86;92.51
54554;BME280;40450;55.848;-3.572;2022-10-16T02:22:30;97200.61;;;5.23;91.68
54554;BME280;40450;55.848;-3.572;2022-10-16T02:25:01;97204.54;;;4.99;92.67
54554;BME280;40450;55.848;-3.572;2022-10-16T02:27:34;97203.15;;;4.80;93.18
54554;BME280;40450;55.848;-3.572;2022-10-16T02:30:02;97203.21;;;4.70;93.89
54554;BME280;40450;55.848;-3.572;2022-10-16T02:32:31;97208.50;;;3.78;95.77
54554;BME280;40450;55.848;-3.572;2022-10-16T02:35:00;97213.69;;;4.22;94.96
54554;BME280;40450;55.848;-3.572;2022-10-16T02:37:30;97222.34;;;3.82;95.79
54554;BME280;40450;55.848;-3.572;2022-10-16T02:40:01;97234.54;;;3.98;95.63
54554;BME280;40450;55.848;-3.572;2022-10-16T02:42:34;97229.51;;;3.47;96.45
54554;BME280;40450;55.848;-3.572;2022-10-16T02:45:01;97232.71;;;3.05;97.04
54554;BME280;40450;55.848;-3.572;2022-10-16T02:47:32;97235.98;;;3.42;96.45
54554;BME280;40450;55.848;-3.572;2022-10-16T02:50:03;97233.23;;;4.19;95.48
54554;BME280;40450;55.848;-3.572;2022-10-16T02:52:32;97235.32;;;4.60;94.41
54554;BME280;40450;55.848;-3.572;2022-10-16T02:55:04;97237.88;;;5.16;93.22
54554;BME280;40450;55.848;-3.572;2022-10-16T02:57:33;97235.98;;;4.45;94.74
54554;BME280;40450;55.848;-3.572;2022-10-16T03:00:05;97246.94;;;3.79;96.24
54554;BME280;40450;55.848;-3.572;2022-10-16T03:02:34;97251.50;;;4.13;95.96
54554;BME280;40450;55.848;-3.572;2022-10-16T03:05:05;97239.49;;;4.29;95.66
54554;BME280;40450;55.848;-3.572;2022-10-16T03:07:35;97240.47;;;4.34;95.52
54554;BME280;40450;55.848;-3.572;2022-10-16T03:10:06;97244.43;;;4.15;95.97
54554;BME280;40450;55.848;-3.572;2022-10-16T03:12:36;97252.64;;;4.00;96.14
54554;BME280;40450;55.848;-3.572;2022-10-16T03:15:07;97257.79;;;3.10;97.49
54554;BME280;40450;55.848;-3.572;2022-10-16T03:17:37;97261.73;;;3.41;97.77
54554;BME280;40450;55.848;-3.572;2022-10-16T03:20:10;97288.15;;;2.63;98.83
54554;BME280;40450;55.848;-3.572;2022-10-16T03:22:37;97264.49;;;3.22;98.37
54554;BME280;40450;55.848;-3.572;2022-10-16T03:25:08;97268.33;;;3.34;98.41
54554;BME280;40450;55.848;-3.572;2022-10-16T03:27:38;97265.56;;;4.24;97.10
54554;BME280;40450;55.848;-3.572;2022-10-16T03:30:09;97256.54;;;5.38;95.02
54554;BME280;40450;55.848;-3.572;2022-10-16T03:32:39;97244.09;;;6.24;92.61
54554;BME280;40450;55.848;-3.572;2022-10-16T03:35:09;97273.26;;;6.51;91.59
54554;BME280;40450;55.848;-3.572;2022-10-16T03:37:40;97284.15;;;5.60;92.77
54554;BME280;40450;55.848;-3.572;2022-10-16T03:40:11;97267.94;;;6.21;91.96
54554;BME280;40450;55.848;-3.572;2022-10-16T03:42:42;97265.38;;;7.59;89.23
54554;BME280;40450;55.848;-3.572;2022-10-16T03:45:11;97259.64;;;7.87;87.42
54554;BME280;40450;55.848;-3.572;2022-10-16T03:47:41;97259.44;;;8.12;86.76
54554;BME280;40450;55.848;-3.572;2022-10-16T03:50:12;97257.33;;;8.52;85.15
54554;BME280;40450;55.848;-3.572;2022-10-16T03:52:42;97264.21;;;6.18;89.35
54554;BME280;40450;55.848;-3.572;2022-10-16T03:55:13;97272.44;;;4.70;93.43
54554;BME280;40450;55.848;-3.572;2022-10-16T03:57:43;97287.60;;;3.43;96.93
54554;BME280;40450;55.848;-3.572;2022-10-16T04:00:14;97297.11;;;2.39;98.62
54554;BME280;40450;55.848;-3.572;2022-10-16T04:02:44;97297.22;;;2.44;98.83
54554;BME280;40450;55.848;-3.572;2022-10-16T04:05:15;97286.06;;;2.80;98.28
54554;BME280;40450;55.848;-3.572;2022-10-16T04:07:45;97282.11;;;3.66;96.58
54554;BME280;40450;55.848;-3.572;2022-10-16T04:10:16;97276.47;;;4.41;95.55
54554;BME280;40450;55.848;-3.572;2022-10-16T04:12:46;97276.94;;;3.44;97.23
54554;BME280;40450;55.848;-3.572;2022-10-16T04:15:16;97270.29;;;3.79;96.74
54554;BME280;40450;55.848;-3.572;2022-10-16T04:17:47;97264.22;;;4.26;95.69
54554;BME280;40450;55.848;-3.572;2022-10-16T04:20:18;97269.67;;;4.31;95.35
54554;BME280;40450;55.848;-3.572;2022-10-16T04:22:47;97269.13;;;3.37;97.24
54554;BME280;40450;55.848;-3.572;2022-10-16T04:25:18;97278.43;;;2.82;98.68
54554;BME280;40450;55.848;-3.572;2022-10-16T04:27:48;97278.28;;;2.84;98.44
54554;BME280;40450;55.848;-3.572;2022-10-16T04:30:19;97278.27;;;3.70;97.39
54554;BME280;40450;55.848;-3.572;2022-10-16T04:32:50;97278.03;;;3.86;96.72
54554;BME280;40450;55.848;-3.572;2022-10-16T04:35:20;97272.15;;;4.21;96.59
54554;BME280;40450;55.848;-3.572;2022-10-16T04:37:50;97271.68;;;4.67;95.94
54554;BME280;40450;55.848;-3.572;2022-10-16T04:40:21;97274.94;;;4.57;96.01
54554;BME280;40450;55.848;-3.572;2022-10-16T04:42:51;97282.79;;;3.82;97.15
54554;BME280;40450;55.848;-3.572;2022-10-16T04:45:21;97273.07;;;4.45;96.60
54554;BME280;40450;55.848;-3.572;2022-10-16T04:47:52;97266.92;;;4.29;96.51
54554;BME280;40450;55.848;-3.572;2022-10-16T04:50:22;97269.34;;;3.86;97.39
54554;BME280;40450;55.848;-3.572;2022-10-16T04:52:53;97274.23;;;4.71;96.54
54554;BME280;40450;55.848;-3.572;2022-10-16T04:55:23;97269.83;;;4.24;96.59
54554;BME280;40450;55.848;-3.572;2022-10-16T04:57:53;97277.57;;;4.38;96.83
54554;BME280;40450;55.848;-3.572;2022-10-16T05:00:24;97279.96;;;4.53;96.73
54554;BME280;40450;55.848;-3.572;2022-10-16T05:02:54;97283.73;;;3.95;97.68
54554;BME280;40450;55.848;-3.572;2022-10-16T05:05:25;97270.60;;;3.17;99.00
54554;BME280;40450;55.848;-3.572;2022-10-16T05:07:56;97269.12;;;2.97;99.04
54554;BME280;40450;55.848;-3.572;2022-10-16T05:10:31;97262.00;;;2.91;99.38
54554;BME280;40450;55.848;-3.572;2022-10-16T05:12:56;97258.24;;;2.28;100.00
54554;BME280;40450;55.848;-3.572;2022-10-16T05:15:26;97253.49;;;2.00;100.00
54554;BME280;40450;55.848;-3.572;2022-10-16T05:17:57;97269.57;;;1.31;100.00
54554;BME280;40450;55.848;-3.572;2022-10-16T05:20:27;97274.60;;;1.42;100.00
54554;BME280;40450;55.848;-3.572;2022-10-16T05:22:58;97276.16;;;1.85;100.00
54554;BME280;40450;55.848;-3.572;2022-10-16T05:25:28;97283.04;;;1.80;100.00
54554;BME280;40450;55.848;-3.572;2022-10-16T05:27:59;97280.46;;;1.75;100.00
54554;BME280;40450;55.848;-3.572;2022-10-16T05:30:29;97285.16;;;3.03;100.00
54554;BME280;40450;55.848;-3.572;2022-10-16T05:33:00;97289.13;;;3.54;100.00
54554;BME280;40450;55.848;-3.572;2022-10-16T05:35:30;97297.15;;;4.53;99.36
54554;BME280;40450;55.848;-3.572;2022-10-16T05:38:00;97295.91;;;5.30;97.26
54554;BME280;40450;55.848;-3.572;2022-10-16T05:40:31;97308.61;;;5.42;96.56
54554;BME280;40450;55.848;-3.572;2022-10-16T05:43:01;97317.54;;;5.94;96.14
54554;BME280;40450;55.848;-3.572;2022-10-16T05:45:32;97328.07;;;5.26;97.46
54554;BME280;40450;55.848;-3.572;2022-10-16T05:48:02;97353.59;;;5.73;96.14
54554;BME280;40450;55.848;-3.572;2022-10-16T05:50:33;97372.19;;;5.65;96.12
54554;BME280;40450;55.848;-3.572;2022-10-16T05:53:03;97365.84;;;5.75;96.00
54554;BME280;40450;55.848;-3.572;2022-10-16T05:55:33;97378.25;;;5.47;96.37
54554;BME280;40450;55.848;-3.572;2022-10-16T05:58:04;97382.53;;;6.50;94.79
54554;BME280;40450;55.848;-3.572;2022-10-16T06:00:34;97387.57;;;7.17;93.61
54554;BME280;40450;55.848;-3.572;2022-10-16T06:03:05;97405.74;;;5.81;94.80
54554;BME280;40450;55.848;-3.572;2022-10-16T06:05:35;97402.74;;;5.79;95.06
54554;BME280;40450;55.848;-3.572;2022-10-16T06:08:05;97425.93;;;5.76;95.23
54554;BME280;40450;55.848;-3.572;2022-10-16T06:10:36;97442.12;;;5.71;94.82
54554;BME280;40450;55.848;-3.572;2022-10-16T06:13:07;97432.31;;;5.47;95.10
54554;BME280;40450;55.848;-3.572;2022-10-16T06:15:37;97441.02;;;6.42;93.51
54554;BME280;40450;55.848;-3.572;2022-10-16T06:18:07;97456.01;;;6.27;93.88
54554;BME280;40450;55.848;-3.572;2022-10-16T06:20:38;97468.83;;;6.41;92.81
54554;BME280;40450;55.848;-3.572;2022-10-16T06:23:08;97483.44;;;5.48;93.52
54554;BME280;40450;55.848;-3.572;2022-10-16T06:25:38;97495.40;;;5.97;93.08
54554;BME280;40450;55.848;-3.572;2022-10-16T06:28:09;97505.17;;;4.80;94.92
54554;BME280;40450;55.848;-3.572;2022-10-16T06:30:39;97520.27;;;5.15;94.21
54554;BME280;40450;55.848;-3.572;2022-10-16T06:33:10;97532.42;;;6.19;92.84
54554;BME280;40450;55.848;-3.572;2022-10-16T06:35:40;97515.80;;;5.23;93.77
54554;BME280;40450;55.848;-3.572;2022-10-16T06:38:10;97538.41;;;5.78;92.84
54554;BME280;40450;55.848;-3.572;2022-10-16T06:40:41;97559.80;;;5.02;94.51
54554;BME280;40450;55.848;-3.572;2022-10-16T06:43:13;97571.32;;;5.75;92.50
54554;BME280;40450;55.848;-3.572;2022-10-16T06:45:42;97579.72;;;6.30;91.15
54554;BME280;40450;55.848;-3.572;2022-10-16T06:48:12;97576.70;;;6.21;91.93
54554;BME280;40450;55.848;-3.572;2022-10-16T06:50:43;97599.17;;;5.35;93.21
54554;BME280;40450;55.848;-3.572;2022-10-16T06:53:13;97587.34;;;6.26;91.84
54554;BME280;40450;55.848;-3.572;2022-10-16T06:55:43;97605.21;;;5.43;93.07
54554;BME280;40450;55.848;-3.572;2022-10-16T06:58:14;97607.14;;;6.06;91.84
54554;BME280;40450;55.848;-3.572;2022-10-16T07:00:44;97614.10;;;6.37;91.00
54554;BME280;40450;55.848;-3.572;2022-10-16T07:03:15;97613.85;;;6.71;90.50
54554;BME280;40450;55.848;-3.572;2022-10-16T07:05:45;97630.44;;;6.77;90.27
54554;BME280;40450;55.848;-3.572;2022-10-16T07:08:15;97643.93;;;5.39;92.37
54554;BME280;40450;55.848;-3.572;2022-10-16T07:10:46;97648.38;;;7.17;88.96
54554;BME280;40450;55.848;-3.572;2022-10-16T07:13:16;97659.27;;;7.98;87.33
54554;BME280;40450;55.848;-3.572;2022-10-16T07:15:47;97671.78;;;8.86;84.99
54554;BME280;40450;55.848;-3.572;2022-10-16T07:18:17;97675.57;;;8.16;85.59
54554;BME280;40450;55.848;-3.572;2022-10-16T07:20:47;97688.21;;;8.81;84.61
54554;BME280;40450;55.848;-3.572;2022-10-16T07:23:18;97694.00;;;8.31;85.94
54554;BME280;40450;55.848;-3.572;2022-10-16T07:25:53;97691.24;;;7.81;85.91
54554;BME280;40450;55.848;-3.572;2022-10-16T07:28:20;97715.96;;;7.19;87.59
54554;BME280;40450;55.848;-3.572;2022-10-16T07:30:49;97723.67;;;7.72;86.60
54554;BME280;40450;55.848;-3.572;2022-10-16T07:33:19;97731.82;;;8.91;85.47
54554;BME280;40450;55.848;-3.572;2022-10-16T07:35:51;97734.74;;;8.09;85.63
54554;BME280;40450;55.848;-3.572;2022-10-16T07:38:21;97743.45;;;7.75;86.67
54554;BME280;40450;55.848;-3.572;2022-10-16T07:40:56;97744.19;;;7.54;86.96
54554;BME280;40450;55.848;-3.572;2022-10-16T07:43:21;97752.49;;;7.36;87.40
54554;BME280;40450;55.848;-3.572;2022-10-16T07:45:51;97759.93;;;7.49;86.79
54554;BME280;40450;55.848;-3.572;2022-10-16T07:48:22;97766.28;;;7.39;86.80
54554;BME280;40450;55.848;-3.572;2022-10-16T07:50:52;97780.22;;;7.40;86.68
54554;BME280;40450;55.848;-3.572;2022-10-16T07:53:22;97779.94;;;7.58;86.78
54554;BME280;40450;55.848;-3.572;2022-10-16T07:55:57;97791.31;;;7.98;84.54
54554;BME280;40450;55.848;-3.572;2022-10-16T07:58:23;97804.80;;;8.64;83.80
54554;BME280;40450;55.848;-3.572;2022-10-16T08:00:54;97816.55;;;7.20;86.36
54554;BME280;40450;55.848;-3.572;2022-10-16T08:03:24;97822.56;;;6.86;86.82
54554;BME280;40450;55.848;-3.572;2022-10-16T08:05:56;97822.01;;;7.82;85.43
54554;BME280;40450;55.848;-3.572;2022-10-16T08:08:25;97824.71;;;7.51;85.72
54554;BME280;40450;55.848;-3.572;2022-10-16T08:10:56;97823.89;;;7.62;85.54
54554;BME280;40450;55.848;-3.572;2022-10-16T08:13:26;97831.88;;;7.07;87.05
54554;BME280;40450;55.848;-3.572;2022-10-16T08:15:56;97837.49;;;7.36;85.96
54554;BME280;40450;55.848;-3.572;2022-10-16T08:18:27;97846.04;;;6.76;87.76
54554;BME280;40450;55.848;-3.572;2022-10-16T08:20:58;97855.17;;;6.61;88.09
54554;BME280;40450;55.848;-3.572;2022-10-16T08:23:28;97861.72;;;6.27;88.46
54554;BME280;40450;55.848;-3.572;2022-10-16T08:26:03;97888.36;;;6.54;88.34
54554;BME280;40450;55.848;-3.572;2022-10-16T08:28:28;97907.22;;;6.40;89.25
54554;BME280;40450;55.848;-3.572;2022-10-16T08:31:05;97913.84;;;6.42;89.06
54554;BME280;40450;55.848;-3.572;2022-10-16T08:33:29;97927.38;;;5.96;90.65
54554;BME280;40450;55.848;-3.572;2022-10-16T08:35:59;97933.02;;;5.50;91.78
54554;BME280;40450;55.848;-3.572;2022-10-16T08:38:30;97944.68;;;7.07;89.39
54554;BME280;40450;55.848;-3.572;2022-10-16T08:41:13;97955.67;;;7.03;89.92
54554;BME280;40450;55.848;-3.572;2022-10-16T08:43:42;97960.33;;;7.54;88.59
54554;BME280;40450;55.848;-3.572;2022-10-16T08:46:10;97973.97;;;7.80;87.06
54554;BME280;40450;55.848;-3.572;2022-10-16T08:48:36;97979.65;;;7.86;87.04
54554;BME280;40450;55.848;-3.572;2022-10-16T08:51:02;97988.82;;;7.76;87.26
54554;BME280;40450;55.848;-3.572;2022-10-16T08:53:38;97996.40;;;7.74;86.99
54554;BME280;40450;55.848;-3.572;2022-10-16T08:56:02;98002.68;;;7.86;86.27
54554;BME280;40450;55.848;-3.572;2022-10-16T08:58:32;98016.36;;;7.72;86.78
54554;BME280;40450;55.848;-3.572;2022-10-16T09:01:11;98021.31;;;8.06;86.19
54554;BME280;40450;55.848;-3.572;2022-10-16T09:03:43;98011.98;;;8.23;85.41
54554;BME280;40450;55.848;-3.572;2022-10-16T09:06:16;98022.29;;;7.70;86.29
54554;BME280;40450;55.848;-3.572;2022-10-16T09:08:42;98017.32;;;8.61;85.15
54554;BME280;40450;55.848;-3.572;2022-10-16T09:11:11;98022.76;;;8.58;83.87
54554;BME280;40450;55.848;-3.572;2022-10-16T09:13:43;98028.36;;;8.82;83.38
54554;BME280;40450;55.848;-3.572;2022-10-16T09:16:14;98048.42;;;8.38;83.38
54554;BME280;40450;55.848;-3.572;2022-10-16T09:18:43;98044.57;;;7.33;84.99
54554;BME280;40450;55.848;-3.572;2022-10-16T09:21:13;98057.34;;;7.79;84.32
54554;BME280;40450;55.848;-3.572;2022-10-16T09:23:37;98066.55;;;7.08;85.65
54554;BME280;40450;55.848;-3.572;2022-10-16T09:26:11;98076.69;;;7.23;85.31
54554;BME280;40450;55.848;-3.572;2022-10-16T09:28:37;98079.28;;;7.66;84.47
54554;BME280;40450;55.848;-3.572;2022-10-16T09:31:13;98063.82;;;8.03;81.60
54554;BME280;40450;55.848;-3.572;2022-10-16T09:33:39;98060.03;;;7.46;82.84
54554;BME280;40450;55.848;-3.572;2022-10-16T09:36:09;98080.93;;;7.33;84.58
54554;BME280;40450;55.848;-3.572;2022-10-16T09:38:39;98092.04;;;8.63;81.73
54554;BME280;40450;55.848;-3.572;2022-10-16T09:41:16;98095.80;;;8.46;81.02
54554;BME280;40450;55.848;-3.572;2022-10-16T09:43:42;98096.54;;;8.97;79.45
54554;BME280;40450;55.848;-3.572;2022-10-16T09:48:44;98120.10;;;9.06;79.14
54554;BME280;40450;55.848;-3.572;2022-10-16T09:51:19;98119.42;;;8.52;79.50
54554;BME280;40450;55.848;-3.572;2022-10-16T09:53:43;98123.52;;;8.49;80.25
54554;BME280;40450;55.848;-3.572;2022-10-16T09:58:43;98132.20;;;8.11;79.83
54554;BME280;40450;55.848;-3.572;2022-10-16T10:01:14;98142.83;;;7.98;81.69
54554;BME280;40450;55.848;-3.572;2022-10-16T10:03:44;98139.13;;;7.97;81.63
54554;BME280;40450;55.848;-3.572;2022-10-16T10:06:21;98151.75;;;8.42;79.51
54554;BME280;40450;55.848;-3.572;2022-10-16T10:11:14;98159.04;;;8.53;79.27
54554;BME280;40450;55.848;-3.572;2022-10-16T10:13:44;98171.58;;;8.76;78.11
54554;BME280;40450;55.848;-3.572;2022-10-16T10:16:23;98169.88;;;7.98;80.76
54554;BME280;40450;55.848;-3.572;2022-10-16T10:18:45;98175.66;;;8.66;78.01
54554;BME280;40450;55.848;-3.572;2022-10-16T10:21:15;98180.81;;;9.05;78.03
54554;BME280;40450;55.848;-3.572;2022-10-16T10:23:55;98194.66;;;8.98;76.98
54554;BME280;40450;55.848;-3.572;2022-10-16T10:26:19;98197.14;;;8.46;79.39
54554;BME280;40450;55.848;-3.572;2022-10-16T10:28:53;98205.82;;;8.80;78.69
54554;BME280;40450;55.848;-3.572;2022-10-16T10:31:22;98210.17;;;9.24;77.88
54554;BME280;40450;55.848;-3.572;2022-10-16T10:33:52;98225.54;;;8.09;80.18
54554;BME280;40450;55.848;-3.572;2022-10-16T10:36:29;98242.16;;;8.71;79.79
54554;BME280;40450;55.848;-3.572;2022-10-16T10:38:51;98240.45;;;9.72;75.78
54554;BME280;40450;55.848;-3.572;2022-10-16T10:43:58;98251.32;;;9.39;76.59
54554;BME280;40450;55.848;-3.572;2022-10-16T10:46:25;98261.33;;;9.78;73.92
54554;BME280;40450;55.848;-3.572;2022-10-16T10:48:59;98259.42;;;9.37;76.62
54554;BME280;40450;55.848;-3.572;2022-10-16T10:51:30;98263.08;;;10.30;74.49
54554;BME280;40450;55.848;-3.572;2022-10-16T10:53:57;98261.35;;;10.05;71.70
54554;BME280;40450;55.848;-3.572;2022-10-16T10:59:02;98275.17;;;10.94;70.58
54554;BME280;40450;55.848;-3.572;2022-10-16T11:01:28;98284.14;;;11.05;70.67
54554;BME280;40450;55.848;-3.572;2022-10-16T11:04:08;98295.41;;;10.05;70.97
54554;BME280;40450;55.848;-3.572;2022-10-16T11:06:25;98305.38;;;9.64;70.62
54554;BME280;40450;55.848;-3.572;2022-10-16T11:08:55;98302.59;;;9.61;69.98
54554;BME280;40450;55.848;-3.572;2022-10-16T11:11:27;98310.00;;;9.75;67.55
54554;BME280;40450;55.848;-3.572;2022-10-16T11:13:57;98315.84;;;9.76;70.45
54554;BME280;40450;55.848;-3.572;2022-10-16T11:16:27;98330.02;;;10.48;66.35
54554;BME280;40450;55.848;-3.572;2022-10-16T11:18:58;98330.63;;;10.53;67.08
54554;BME280;40450;55.848;-3.572;2022-10-16T11:21:24;98335.87;;;11.69;66.97
54554;BME280;40450;55.848;-3.572;2022-10-16T11:23:59;98350.65;;;10.92;67.68
54554;BME280;40450;55.848;-3.572;2022-10-16T11:26:27;98353.75;;;10.43;65.68
54554;BME280;40450;55.848;-3.572;2022-10-16T11:28:56;98362.24;;;9.65;67.97
54554;BME280;40450;55.848;-3.572;2022-10-16T11:31:30;98365.31;;;10.93;66.48
54554;BME280;40450;55.848;-3.572;2022-10-16T11:34:01;98372.51;;;10.35;65.61
54554;BME280;40450;55.848;-3.572;2022-10-16T11:36:33;98383.14;;;10.11;66.12
54554;BME280;40450;55.848;-3.572;2022-10-16T11:39:02;98383.97;;;9.77;68.10
54554;BME280;40450;55.848;-3.572;2022-10-16T11:41:29;98393.11;;;10.87;65.29
54554;BME280;40450;55.848;-3.572;2022-10-16T11:44:12;98394.59;;;11.58;64.90
54554;BME280;40450;55.848;-3.572;2022-10-16T11:46:31;98400.38;;;11.37;63.28
54554;BME280;40450;55.848;-3.572;2022-10-16T11:49:03;98399.06;;;11.18;63.34
54554;BME280;40450;55.848;-3.572;2022-10-16T11:51:35;98400.06;;;11.22;63.57
54554;BME280;40450;55.848;-3.572;2022-10-16T11:54:03;98403.66;;;10.38;63.57
54554;BME280;40450;55.848;-3.572;2022-10-16T11:56:29;98398.08;;;11.42;63.90
54554;BME280;40450;55.848;-3.572;2022-10-16T11:59:02;98412.42;;;11.39;65.36
54554;BME280;40450;55.848;-3.572;2022-10-16T12:01:33;98417.02;;;11.81;62.70
54554;BME280;40450;55.848;-3.572;2022-10-16T12:04:11;98419.38;;;12.29;60.90
54554;BME280;40450;55.848;-3.572;2022-10-16T12:06:39;98424.51;;;12.24;62.59
54554;BME280;40450;55.848;-3.572;2022-10-16T12:09:01;98427.82;;;12.70;64.04
54554;BME280;40450;55.848;-3.572;2022-10-16T12:11:34;98423.48;;;12.69;63.14
54554;BME280;40450;55.848;-3.572;2022-10-16T12:14:07;98439.42;;;12.56;62.72
54554;BME280;40450;55.848;-3.572;2022-10-16T12:16:32;98432.09;;;11.71;62.13
54554;BME280;40450;55.848;-3.572;2022-10-16T12:19:11;98432.53;;;12.52;60.23
54554;BME280;40450;55.848;-3.572;2022-10-16T12:21:32;98438.62;;;12.50;56.66
54554;BME280;40450;55.848;-3.572;2022-10-16T12:24:04;98439.57;;;13.46;55.73
54554;BME280;40450;55.848;-3.572;2022-10-16T12:26:36;98456.23;;;13.57;55.81
54554;BME280;40450;55.848;-3.572;2022-10-16T12:29:12;98455.52;;;12.58;59.47
54554;BME280;40450;55.848;-3.572;2022-10-16T12:31:37;98461.74;;;13.40;57.48
54554;BME280;40450;55.848;-3.572;2022-10-16T12:34:14;98468.28;;;12.79;60.43
54554;BME280;40450;55.848;-3.572;2022-10-16T12:36:35;98481.73;;;11.98;62.73
54554;BME280;40450;55.848;-3.572;2022-10-16T12:39:05;98492.03;;;11.47;65.04
54554;BME280;40450;55.848;-3.572;2022-10-16T12:41:36;98493.00;;;11.80;64.54
54554;BME280;40450;55.848;-3.572;2022-10-16T12:46:38;98500.54;;;12.69;66.19
54554;BME280;40450;55.848;-3.572;2022-10-16T12:51:37;98510.49;;;12.69;68.94
54554;BME280;40450;55.848;-3.572;2022-10-16T12:54:13;98519.69;;;12.14;70.33
54554;BME280;40450;55.848;-3.572;2022-10-16T12:56:46;98524.49;;;10.86;72.40
54554;BME280;40450;55.848;-3.572;2022-10-16T12:59:15;98534.83;;;10.06;76.99
54554;BME280;40450;55.848;-3.572;2022-10-16T13:01:48;98544.35;;;9.48;77.17
54554;BME280;40450;55.848;-3.572;2022-10-16T13:04:19;98547.53;;;9.35;77.58
54554;BME280;40450;55.848;-3.572;2022-10-16T13:06:43;98548.65;;;9.74;77.49
54554;BME280;40450;55.848;-3.572;2022-10-16T13:09:20;98553.04;;;9.85;77.76
54554;BME280;40450;55.848;-3.572;2022-10-16T13:11:52;98554.53;;;11.14;75.52
54554;BME280;40450;55.848;-3.572;2022-10-16T13:16:49;98557.92;;;10.50;76.51
54554;BME280;40450;55.848;-3.572;2022-10-16T13:19:18;98567.08;;;11.19;75.51
54554;BME280;40450;55.848;-3.572;2022-10-16T13:21:49;98568.96;;;11.00;76.50
54554;BME280;40450;55.848;-3.572;2022-10-16T13:24:20;98571.10;;;11.31;76.39
54554;BME280;40450;55.848;-3.572;2022-10-16T13:26:46;98576.88;;;11.99;74.56
54554;BME280;40450;55.848;-3.572;2022-10-16T13:29:12;98579.54;;;12.51;73.40
54554;BME280;40450;55.848;-3.572;2022-10-16T13:31:43;98586.18;;;12.14;73.43
54554;BME280;40450;55.848;-3.572;2022-10-16T13:34:15;98583.93;;;12.42;72.98
54554;BME280;40450;55.848;-3.572;2022-10-16T13:36:46;98581.15;;;12.45;72.77